Time;durP1;ratioP1;P1;durP2;ratioP2;P2;SDS_P1;SDS_P2;PMS_P1;PMS_P2;Temp;Humidity;BMP_temperature;BMP_pressure;BME280_temperature;BME280_humidity;BME280_pressure;Samples;Min_cycle;Max_cycle;Signal;HPM_P1;HPM_P2
2021/11/17 02:27:58;;;;;;;21.42;10.50;;;3.80;99.90;;;;;;5043413;28;20083;-58
2021/11/17 02:30:58;;;;;;;20.85;9.48;;;3.80;99.90;;;;;;5050158;28;20032;-53
2021/11/17 02:33:42;;;;;;;19.15;9.18;;;3.90;99.90;;;;;;5066537;28;20451;-52
2021/11/17 02:36:29;;;;;;;22.73;9.45;;;3.80;99.90;;;;;;5051409;28;20122;-55
2021/11/17 02:39:21;;;;;;;20.48;10.38;;;3.90;99.90;;;;;;5051155;28;20052;-54
2021/11/17 02:42:13;;;;;;;16.77;8.32;;;3.90;99.90;;;;;;5039808;28;20020;-52
2021/11/17 02:45:01;;;;;;;19.08;8.40;;;3.80;99.90;;;;;;5061906;28;20033;-53
2021/11/17 02:47:33;;;;;;;19.88;9.38;;;3.80;99.90;;;;;;5050593;28;20032;-54
2021/11/17 02:50:27;;;;;;;18.02;9.20;;;3.80;99.90;;;;;;5063611;28;20017;-55
2021/11/17 02:53:27;;;;;;;18.15;9.43;;;3.80;99.90;;;;;;5059365;28;20448;-55
2021/11/17 02:56:18;;;;;;;17.15;8.02;;;3.80;99.90;;;;;;5016781;28;20041;-57
2021/11/17 02:59:05;;;;;;;17.67;8.55;;;3.80;99.90;;;;;;5050584;28;20112;-52
2021/11/17 03:02:00;;;;;;;15.32;8.30;;;3.80;99.90;;;;;;5063193;28;20117;-53
2021/11/17 03:04:35;;;;;;;15.45;8.57;;;3.80;99.90;;;;;;5065317;28;20052;-55
2021/11/17 03:07:07;;;;;;;15.10;7.63;;;3.80;99.90;;;;;;5051083;28;20036;-53
2021/11/17 03:09:48;;;;;;;12.63;7.10;;;3.80;99.90;;;;;;5070053;28;20051;-54
2021/11/17 03:12:44;;;;;;;13.52;6.97;;;3.80;99.90;;;;;;5068936;28;20603;-53
2021/11/17 03:15:37;;;;;;;17.10;8.82;;;3.80;99.90;;;;;;5068836;28;20035;-56
2021/11/17 03:18:23;;;;;;;17.88;7.97;;;3.80;99.90;;;;;;5069845;28;20055;-55
2021/11/17 03:21:27;;;;;;;16.65;8.52;;;3.80;99.90;;;;;;5070219;28;20404;-54
2021/11/17 03:24:27;;;;;;;16.70;7.75;;;3.80;99.90;;;;;;5035831;28;20104;-53
2021/11/17 03:27:21;;;;;;;16.73;7.15;;;3.80;99.90;;;;;;5055742;28;20379;-56
2021/11/17 03:30:33;;;;;;;13.50;7.25;;;3.70;99.90;;;;;;5069432;28;20020;-56
2021/11/17 03:33:08;;;;;;;15.30;7.68;;;3.70;99.90;;;;;;4988008;28;20026;-56
2021/11/17 03:35:40;;;;;;;19.85;9.38;;;3.80;99.90;;;;;;5053233;28;20037;-56
2021/11/17 03:38:18;;;;;;;16.55;7.95;;;3.70;99.90;;;;;;5050626;28;20110;-56
2021/11/17 03:41:05;;;;;;;12.75;8.02;;;3.80;99.90;;;;;;5050185;28;20141;-54
2021/11/17 03:43:59;;;;;;;13.52;8.45;;;3.80;99.90;;;;;;5050341;28;20088;-56
2021/11/17 03:46:53;;;;;;;15.57;8.07;;;3.80;99.90;;;;;;5056859;28;20392;-54
2021/11/17 03:49:25;;;;;;;14.77;8.15;;;3.80;99.90;;;;;;5061460;28;20036;-52
2021/11/17 03:52:11;;;;;;;15.15;7.35;;;3.80;99.90;;;;;;5054357;28;20025;-52
2021/11/17 03:55:00;;;;;;;12.15;6.65;;;3.70;99.90;;;;;;5049975;28;20032;-52
2021/11/17 03:57:38;;;;;;;16.52;8.20;;;3.70;99.90;;;;;;5052734;28;20066;-54
2021/11/17 04:00:16;;;;;;;14.63;7.30;;;3.80;99.90;;;;;;5069580;28;20032;-53
2021/11/17 04:02:48;;;;;;;16.67;7.95;;;3.80;99.90;;;;;;5066503;28;20526;-55
2021/11/17 04:05:19;;;;;;;13.45;7.40;;;3.70;99.90;;;;;;5064153;28;20032;-55
2021/11/17 04:08:03;;;;;;;17.10;8.45;;;3.70;99.90;;;;;;5061550;28;20036;-51
2021/11/17 04:11:02;;;;;;;12.73;7.47;;;3.70;99.90;;;;;;5065473;28;20124;-52
2021/11/17 04:13:33;;;;;;;14.57;7.15;;;3.80;99.90;;;;;;5049227;28;20087;-52
2021/11/17 04:16:26;;;;;;;14.18;7.68;;;3.70;99.90;;;;;;5050337;28;20112;-54
2021/11/17 04:19:20;;;;;;;11.93;7.32;;;3.80;99.90;;;;;;5049389;28;20017;-55
2021/11/17 04:22:00;;;;;;;13.35;8.02;;;3.80;99.90;;;;;;5065285;28;20404;-55
2021/11/17 04:24:47;;;;;;;13.55;7.35;;;3.70;99.90;;;;;;5069094;28;20488;-55
2021/11/17 04:27:37;;;;;;;12.20;7.30;;;3.70;99.90;;;;;;5068765;28;20032;-51
2021/11/17 04:30:24;;;;;;;14.48;7.40;;;3.70;99.90;;;;;;5068711;28;20421;-52
2021/11/17 04:32:59;;;;;;;14.63;7.75;;;3.70;99.90;;;;;;5068676;28;20407;-55
2021/11/17 04:35:36;;;;;;;14.00;7.78;;;3.70;99.90;;;;;;5053489;28;20527;-53
2021/11/17 04:38:19;;;;;;;13.55;6.28;;;3.70;99.90;;;;;;5068741;28;20042;-52
2021/11/17 04:41:15;;;;;;;16.02;8.00;;;3.70;99.90;;;;;;5068214;28;20086;-53
2021/11/17 04:44:11;;;;;;;13.90;8.13;;;3.80;99.90;;;;;;5068590;28;20025;-53
2021/11/17 04:46:54;;;;;;;13.82;6.68;;;3.80;99.90;;;;;;5053269;28;20032;-52
2021/11/17 04:49:48;;;;;;;12.27;7.43;;;3.70;99.90;;;;;;5048232;28;20039;-53
2021/11/17 04:52:28;;;;;;;14.30;6.70;;;3.70;99.90;;;;;;5049368;28;20063;-54
2021/11/17 04:55:15;;;;;;;13.75;7.82;;;3.70;99.90;;;;;;5048262;28;20532;-56
2021/11/17 04:58:00;;;;;;;13.50;7.07;;;3.70;99.90;;;;;;5048597;28;20021;-57
2021/11/17 05:00:36;;;;;;;13.93;7.38;;;3.70;99.90;;;;;;5052360;28;20029;-54
2021/11/17 05:03:13;;;;;;;16.75;7.82;;;3.80;99.90;;;;;;5064788;28;20024;-51
2021/11/17 05:06:15;;;;;;;16.25;6.95;;;3.70;99.90;;;;;;5048507;28;20082;-53
2021/11/17 05:08:46;;;;;;;13.40;7.32;;;3.70;99.90;;;;;;5048249;28;20460;-55
2021/11/17 05:11:24;;;;;;;15.75;8.32;;;3.70;99.90;;;;;;5048769;28;20127;-54
2021/11/17 05:14:18;;;;;;;15.75;8.73;;;3.70;99.90;;;;;;5049333;28;20413;-54
2021/11/17 05:17:14;;;;;;;13.10;6.68;;;3.80;99.90;;;;;;5057164;28;20039;-54
2021/11/17 05:20:01;;;;;;;15.63;7.55;;;3.80;99.90;;;;;;5067627;28;20024;-55
2021/11/17 05:22:35;;;;;;;14.05;8.50;;;3.80;99.90;;;;;;5068428;28;20035;-55
2021/11/17 05:25:13;;;;;;;14.93;8.40;;;3.80;99.90;;;;;;5068243;28;20033;-54
2021/11/17 05:27:58;;;;;;;13.75;7.70;;;3.80;99.90;;;;;;5064808;28;20035;-56
2021/11/17 05:31:01;;;;;;;13.82;7.82;;;3.80;99.90;;;;;;5049101;28;20052;-56
2021/11/17 05:34:02;;;;;;;14.73;7.97;;;3.70;99.90;;;;;;5020311;28;20036;-58
2021/11/17 05:37:01;;;;;;;16.00;8.90;;;3.70;99.90;;;;;;5017751;28;20056;-56
2021/11/17 05:39:29;;;;;;;14.15;7.30;;;3.70;99.90;;;;;;5051150;28;20032;-55
2021/11/17 05:42:07;;;;;;;18.08;9.18;;;3.70;99.90;;;;;;5060018;28;20619;-56
2021/11/17 05:44:54;;;;;;;14.10;8.85;;;3.70;99.90;;;;;;5043591;28;20106;-55
2021/11/17 05:47:31;;;;;;;16.17;8.18;;;3.70;99.90;;;;;;5044988;28;20119;-55
2021/11/17 05:50:06;;;;;;;15.48;8.30;;;3.70;99.90;;;;;;5048402;28;20075;-56
2021/11/17 05:53:02;;;;;;;15.93;7.82;;;3.70;99.90;;;;;;5047920;28;20053;-55
2021/11/17 05:55:55;;;;;;;13.40;7.57;;;3.70;99.90;;;;;;5009419;28;20037;-56
2021/11/17 05:58:39;;;;;;;15.07;7.90;;;3.70;99.90;;;;;;5053868;28;20028;-57
2021/11/17 06:01:16;;;;;;;19.20;9.35;;;3.70;99.90;;;;;;5071389;28;20055;-54
2021/11/17 06:03:58;;;;;;;17.38;8.88;;;3.80;99.90;;;;;;5067725;28;20115;-54
2021/11/17 06:06:24;;;;;;;17.23;8.25;;;3.80;99.90;;;;;;5071704;28;20035;-57
2021/11/17 06:08:50;;;;;;;13.63;8.73;;;3.70;99.90;;;;;;5064576;28;20411;-57
2021/11/17 06:11:17;;;;;;;17.23;9.20;;;3.70;99.90;;;;;;5051849;28;20110;-56
2021/11/17 06:13:46;;;;;;;19.75;8.85;;;3.80;99.90;;;;;;5051796;28;20104;-55
2021/11/17 06:16:12;;;;;;;17.60;8.95;;;3.80;99.90;;;;;;5052854;28;20035;-57
2021/11/17 06:18:41;;;;;;;15.70;8.85;;;3.80;99.90;;;;;;5056318;28;20037;-56
2021/11/17 06:21:09;;;;;;;16.48;9.20;;;3.80;99.90;;;;;;5033564;28;20032;-58
2021/11/17 06:23:47;;;;;;;18.35;10.50;;;3.80;99.90;;;;;;5066506;28;20029;-56
2021/11/17 06:26:19;;;;;;;19.73;9.88;;;3.80;99.90;;;;;;5070915;28;20057;-57
2021/11/17 06:28:51;;;;;;;21.35;10.85;;;3.80;99.90;;;;;;5069780;28;20036;-53
2021/11/17 06:31:16;;;;;;;17.90;11.05;;;3.80;99.90;;;;;;5052937;28;20037;-55
2021/11/17 06:33:42;;;;;;;22.13;11.43;;;3.80;99.90;;;;;;5070623;28;20522;-56
2021/11/17 06:36:08;;;;;;;20.48;10.65;;;3.80;99.90;;;;;;5062386;28;20025;-57
2021/11/17 06:38:33;;;;;;;21.38;11.73;;;3.80;99.90;;;;;;5051197;28;20400;-56
2021/11/17 06:40:59;;;;;;;19.63;11.00;;;3.80;99.90;;;;;;5051633;28;20051;-56
2021/11/17 06:43:24;;;;;;;17.83;11.55;;;3.80;99.90;;;;;;5051273;28;20021;-54
2021/11/17 06:45:55;;;;;;;22.50;12.15;;;3.80;99.90;;;;;;5050549;28;20033;-55
2021/11/17 06:48:23;;;;;;;19.70;12.05;;;3.80;99.90;;;;;;5061001;28;20496;-53
2021/11/17 06:50:50;;;;;;;23.02;12.40;;;3.80;99.90;;;;;;5052970;28;20028;-56
2021/11/17 06:53:16;;;;;;;24.85;12.60;;;3.80;99.90;;;;;;5050888;28;20091;-56
2021/11/17 06:55:43;;;;;;;19.67;11.82;;;3.80;99.90;;;;;;5058577;28;20032;-54
2021/11/17 06:58:09;;;;;;;23.20;13.32;;;3.80;99.90;;;;;;5070318;28;20024;-53
2021/11/17 07:00:38;;;;;;;25.92;13.15;;;3.90;99.90;;;;;;5063143;28;20032;-57
2021/11/17 07:03:04;;;;;;;21.90;11.85;;;3.80;99.90;;;;;;5052566;28;20051;-55
2021/11/17 07:05:30;;;;;;;24.67;11.93;;;3.80;99.90;;;;;;5069971;28;20513;-57
2021/11/17 07:07:57;;;;;;;23.40;11.38;;;3.90;99.90;;;;;;5068675;28;20036;-56
2021/11/17 07:10:26;;;;;;;25.73;12.77;;;3.90;99.90;;;;;;5066013;28;20024;-53
2021/11/17 07:12:52;;;;;;;20.23;13.43;;;3.90;99.90;;;;;;5068214;28;20769;-52
2021/11/17 07:15:18;;;;;;;23.48;13.00;;;4.00;99.90;;;;;;5050575;28;20062;-54
2021/11/17 07:17:44;;;;;;;29.10;15.82;;;3.90;99.90;;;;;;5051494;28;20025;-56
2021/11/17 07:20:12;;;;;;;31.58;15.15;;;3.90;99.90;;;;;;5051285;28;20029;-55
2021/11/17 07:22:38;;;;;;;37.42;16.88;;;4.00;99.90;;;;;;5055676;28;20056;-53
2021/11/17 07:25:06;;;;;;;29.80;15.48;;;4.00;99.90;;;;;;5051773;28;20024;-56
2021/11/17 07:27:32;;;;;;;26.77;14.25;;;4.00;99.90;;;;;;5067976;28;20027;-54
2021/11/17 07:29:58;;;;;;;28.60;16.25;;;4.00;99.90;;;;;;5060708;28;20029;-53
2021/11/17 07:32:26;;;;;;;34.75;17.20;;;4.10;99.90;;;;;;5050514;28;20031;-54
2021/11/17 07:34:52;;;;;;;48.42;20.50;;;4.10;99.90;;;;;;5050019;28;20029;-56
2021/11/17 07:37:18;;;;;;;37.83;18.50;;;4.10;99.90;;;;;;5046083;28;20028;-55
2021/11/17 07:39:44;;;;;;;31.67;18.27;;;4.10;99.90;;;;;;5051448;28;20051;-53
2021/11/17 07:42:10;;;;;;;41.70;17.65;;;4.20;99.90;;;;;;5070081;28;20629;-57
2021/11/17 07:44:37;;;;;;;45.42;28.27;;;4.20;99.90;;;;;;5069698;28;20528;-54
2021/11/17 07:47:04;;;;;;;47.88;20.50;;;4.20;99.90;;;;;;5068398;28;20035;-55
2021/11/17 07:49:29;;;;;;;34.03;17.88;;;4.20;99.90;;;;;;5054240;28;20035;-55
2021/11/17 07:51:56;;;;;;;64.55;22.75;;;4.20;99.90;;;;;;5069268;28;20025;-55
2021/11/17 07:54:24;;;;;;;38.47;18.65;;;4.30;99.90;;;;;;5062978;28;20021;-52
2021/11/17 07:56:51;;;;;;;38.22;18.70;;;4.30;99.90;;;;;;5050789;28;20029;-54
2021/11/17 07:59:21;;;;;;;45.67;23.40;;;4.30;99.90;;;;;;5049311;28;20400;-52
2021/11/17 08:01:49;;;;;;;34.30;19.80;;;4.30;99.90;;;;;;5057744;28;20029;-52
2021/11/17 08:04:18;;;;;;;38.47;18.42;;;4.30;99.90;;;;;;5069388;28;20021;-53
2021/11/17 08:06:44;;;;;;;50.28;24.52;;;4.40;99.90;;;;;;5063446;28;20036;-56
2021/11/17 08:09:11;;;;;;;68.07;28.70;;;4.40;99.90;;;;;;5075254;28;20040;-55
2021/11/17 08:11:39;;;;;;;56.63;23.58;;;4.40;99.90;;;;;;5057948;28;20025;-52
2021/11/17 08:14:05;;;;;;;45.85;22.08;;;4.40;99.90;;;;;;5069760;28;20024;-52
2021/11/17 08:16:31;;;;;;;47.83;20.38;;;4.50;99.90;;;;;;5054493;28;20759;-55
2021/11/17 08:18:57;;;;;;;33.55;18.08;;;4.50;99.90;;;;;;5063303;28;20035;-56
2021/11/17 08:21:23;;;;;;;43.80;20.60;;;4.50;99.90;;;;;;5068238;28;20021;-54
2021/11/17 08:23:48;;;;;;;35.97;17.52;;;4.50;99.90;;;;;;5051476;28;20024;-51
2021/11/17 08:26:17;;;;;;;36.58;20.58;;;4.50;99.90;;;;;;5069363;28;20032;-53
2021/11/17 08:28:43;;;;;;;42.10;22.52;;;4.60;99.90;;;;;;5069179;28;20027;-55
2021/11/17 08:31:12;;;;;;;38.63;19.70;;;4.60;99.90;;;;;;5069245;28;20024;-57
2021/11/17 08:33:39;;;;;;;41.70;21.23;;;4.60;99.90;;;;;;5068605;28;20765;-54
2021/11/17 08:36:05;;;;;;;38.00;19.38;;;4.60;99.90;;;;;;5067937;28;20029;-54
2021/11/17 08:38:31;;;;;;;45.47;19.42;;;4.60;99.90;;;;;;5069134;28;20450;-56
2021/11/17 08:41:00;;;;;;;27.15;15.52;;;4.60;99.90;;;;;;5069140;28;20439;-56
2021/11/17 08:43:28;;;;;;;34.65;15.40;;;4.60;99.90;;;;;;5069006;28;20503;-57
2021/11/17 08:45:54;;;;;;;29.30;14.73;;;4.60;99.90;;;;;;5069105;28;20031;-53
2021/11/17 08:48:24;;;;;;;36.05;16.10;;;4.70;99.90;;;;;;5068469;28;20031;-54
2021/11/17 08:50:52;;;;;;;29.33;14.20;;;4.70;99.90;;;;;;5068400;28;20035;-52
2021/11/17 08:53:20;;;;;;;29.35;16.85;;;4.80;99.90;;;;;;5061284;28;20116;-54
2021/11/17 08:55:46;;;;;;;34.25;15.77;;;4.80;99.90;;;;;;5049556;28;20493;-53
2021/11/17 08:58:13;;;;;;;27.63;12.90;;;4.80;99.90;;;;;;5064148;28;20484;-56
2021/11/17 09:00:40;;;;;;;31.73;14.55;;;4.80;99.90;;;;;;5068654;28;20021;-54
2021/11/17 09:03:07;;;;;;;36.63;16.63;;;4.80;99.90;;;;;;5067303;28;20415;-52
2021/11/17 09:05:46;;;;;;;36.15;14.65;;;4.90;99.90;;;;;;5068042;28;20036;-53
2021/11/17 09:08:13;;;;;;;27.60;13.00;;;4.80;99.90;;;;;;5068347;28;20111;-53
2021/11/17 09:10:42;;;;;;;45.08;17.10;;;4.90;99.90;;;;;;5067131;28;20564;-52
2021/11/17 09:13:08;;;;;;;27.95;14.25;;;4.90;99.90;;;;;;5068524;28;20477;-54
2021/11/17 09:15:37;;;;;;;34.40;16.02;;;4.90;99.90;;;;;;5052053;28;20037;-51
2021/11/17 09:18:05;;;;;;;36.30;15.82;;;4.90;99.90;;;;;;5049228;28;20032;-52
2021/11/17 09:20:31;;;;;;;38.33;16.42;;;4.90;99.90;;;;;;5048060;28;20144;-52
2021/11/17 09:22:57;;;;;;;25.30;12.25;;;4.90;99.90;;;;;;5053101;28;20017;-52
2021/11/17 09:25:24;;;;;;;25.45;13.50;;;4.90;99.90;;;;;;5068389;28;20119;-53
2021/11/17 09:27:50;;;;;;;25.45;12.82;;;4.90;99.90;;;;;;5064535;28;20033;-54
2021/11/17 09:30:23;;;;;;;38.58;15.27;;;4.90;99.90;;;;;;5048698;28;20040;-52
2021/11/17 09:32:51;;;;;;;25.92;12.85;;;5.00;99.90;;;;;;5050822;28;20091;-55
2021/11/17 09:35:19;;;;;;;26.58;12.88;;;5.00;99.90;;;;;;5068346;28;20032;-56
2021/11/17 09:37:46;;;;;;;22.38;13.13;;;5.10;99.90;;;;;;5066341;28;20095;-56
2021/11/17 09:40:19;;;;;;;23.00;12.20;;;5.10;99.90;;;;;;5053899;28;20467;-57
2021/11/17 09:42:45;;;;;;;28.20;14.13;;;5.10;99.90;;;;;;5051428;28;20079;-54
2021/11/17 09:45:12;;;;;;;22.83;12.35;;;5.10;99.90;;;;;;5068282;28;20041;-52
2021/11/17 09:47:39;;;;;;;26.67;12.20;;;5.10;99.90;;;;;;5066109;28;20060;-54
2021/11/17 09:50:16;;;;;;;25.27;12.07;;;5.10;99.90;;;;;;5049899;28;20064;-55
2021/11/17 09:53:14;;;;;;;24.40;13.35;;;5.20;99.90;;;;;;5065044;28;20078;-54
2021/11/17 09:55:54;;;;;;;54.67;17.77;;;5.20;99.90;;;;;;5051440;28;20106;-53
2021/11/17 09:58:48;;;;;;;36.85;14.35;;;5.20;99.90;;;;;;5052938;28;20647;-55
2021/11/17 10:01:26;;;;;;;41.53;15.25;;;5.20;99.90;;;;;;5055820;28;20492;-56
2021/11/17 10:04:02;;;;;;;33.42;14.35;;;5.20;99.90;;;;;;5067412;28;20128;-58
2021/11/17 10:14:49;;;;;;;25.33;12.95;;;5.30;99.90;;;;;;5068017;28;20082;-57
2021/11/17 10:17:33;;;;;;;26.45;12.80;;;5.30;99.90;;;;;;5066244;28;20021;-55
2021/11/17 10:20:10;;;;;;;29.25;13.20;;;5.30;99.90;;;;;;5067553;28;20070;-54
2021/11/17 10:22:36;;;;;;;29.77;13.40;;;5.40;99.90;;;;;;5067776;28;20048;-58
2021/11/17 10:25:15;;;;;;;23.75;12.45;;;5.40;99.90;;;;;;5066409;28;20056;-54
2021/11/17 10:27:51;;;;;;;23.95;12.27;;;5.40;99.90;;;;;;5047255;28;20025;-55
2021/11/17 10:30:27;;;;;;;25.90;12.40;;;5.40;99.90;;;;;;5051224;28;20032;-53
2021/11/17 10:33:03;;;;;;;25.02;12.27;;;5.40;99.90;;;;;;5067616;28;20557;-52
2021/11/17 10:35:33;;;;;;;23.13;12.27;;;5.40;99.90;;;;;;5048069;28;20515;-57
2021/11/17 10:38:16;;;;;;;25.73;12.30;;;5.40;99.90;;;;;;5067367;28;20479;-54
2021/11/17 10:40:53;;;;;;;22.33;12.52;;;5.50;99.90;;;;;;5052871;28;20017;-55
2021/11/17 10:43:56;;;;;;;23.55;12.50;;;5.50;99.90;;;;;;5051769;28;20049;-56
2021/11/17 10:46:34;;;;;;;23.80;12.13;;;5.50;99.90;;;;;;5055426;28;20074;-56
2021/11/17 10:49:05;;;;;;;24.08;13.23;;;5.50;99.90;;;;;;5052999;28;20083;-56
2021/11/17 10:51:35;;;;;;;26.92;13.90;;;5.60;99.90;;;;;;5056302;28;20162;-51
2021/11/17 10:54:08;;;;;;;31.70;15.95;;;5.60;99.90;;;;;;5052425;28;20029;-53
2021/11/17 10:56:34;;;;;;;49.05;30.23;;;5.60;99.90;;;;;;5062664;28;20745;-52
2021/11/17 10:59:01;;;;;;;30.15;16.58;;;5.60;99.90;;;;;;5065021;28;20116;-56
2021/11/17 11:01:35;;;;;;;26.63;13.85;;;5.60;99.90;;;;;;5055271;28;20040;-56
2021/11/17 11:04:05;;;;;;;29.60;15.43;;;5.70;99.90;;;;;;5050729;28;20426;-54
2021/11/17 11:06:38;;;;;;;34.00;18.27;;;5.70;99.90;;;;;;5050889;28;20478;-55
2021/11/17 11:09:13;;;;;;;62.70;34.42;;;5.80;99.90;;;;;;5053158;28;20091;-53
2021/11/17 11:11:49;;;;;;;32.50;19.23;;;5.80;99.90;;;;;;5052362;28;20123;-53
2021/11/17 11:14:25;;;;;;;32.90;18.10;;;5.80;99.90;;;;;;5068730;28;20643;-55
2021/11/17 11:17:13;;;;;;;31.80;16.67;;;5.80;99.90;;;;;;5070616;28;20109;-56
2021/11/17 11:19:39;;;;;;;34.65;16.38;;;5.80;99.90;;;;;;5069631;28;20070;-55
2021/11/17 11:22:15;;;;;;;32.33;16.88;;;5.80;99.90;;;;;;5050886;28;20029;-54
2021/11/17 11:24:45;;;;;;;35.10;17.63;;;5.80;99.90;;;;;;5051119;28;20568;-55
2021/11/17 11:27:32;;;;;;;37.60;19.95;;;5.90;99.90;;;;;;5050320;28;20025;-53
2021/11/17 11:30:04;;;;;;;38.70;19.10;;;5.90;99.90;;;;;;5059351;28;20660;-54
2021/11/17 11:32:29;;;;;;;42.13;21.67;;;6.00;99.90;;;;;;5070325;28;20017;-53
2021/11/17 11:34:58;;;;;;;41.50;19.77;;;6.00;99.90;;;;;;5068265;28;20035;-56
2021/11/17 11:37:23;;;;;;;41.95;19.10;;;6.00;99.90;;;;;;5052817;28;20598;-54
2021/11/17 11:39:52;;;;;;;38.30;18.40;;;6.10;99.90;;;;;;5069803;28;20024;-56
2021/11/17 11:42:32;;;;;;;41.72;19.88;;;6.10;99.90;;;;;;5066696;28;20036;-57
2021/11/17 11:45:27;;;;;;;51.53;22.17;;;6.20;99.90;;;;;;5058451;28;20028;-55
2021/11/17 11:48:25;;;;;;;45.83;19.80;;;6.20;99.90;;;;;;5043115;28;20033;-58
2021/11/17 11:51:05;;;;;;;43.38;21.45;;;6.20;99.90;;;;;;5016884;28;20044;-54
2021/11/17 11:54:09;;;;;;;59.05;29.13;;;6.30;99.90;;;;;;5050130;28;20124;-53
2021/11/17 11:57:03;;;;;;;50.58;26.45;;;6.30;99.90;;;;;;5049616;28;20021;-56
2021/11/17 11:59:30;;;;;;;57.13;27.83;;;6.30;99.90;;;;;;4977444;28;20050;-53
2021/11/17 12:02:22;;;;;;;53.25;24.05;;;6.30;99.90;;;;;;5049136;28;20086;-56
2021/11/17 12:05:01;;;;;;;44.20;21.45;;;6.40;99.90;;;;;;5049446;28;20715;-55
2021/11/17 12:07:37;;;;;;;53.15;22.98;;;6.50;99.90;;;;;;5049709;28;20025;-52
2021/11/17 12:10:05;;;;;;;;;;;6.50;99.90;;;;;;5050437;28;20427;-56
2021/11/17 12:12:37;;;;;;;48.45;22.02;;;6.50;99.90;;;;;;5050162;28;19915;-55
2021/11/17 12:15:26;;;;;;;47.08;21.73;;;6.50;99.90;;;;;;5049818;28;20092;-55
2021/11/17 12:18:14;;;;;;;53.35;24.45;;;6.50;99.90;;;;;;5049643;28;20512;-54
2021/11/17 12:20:47;;;;;;;45.30;21.63;;;6.60;99.90;;;;;;5049369;28;20017;-54
2021/11/17 12:23:17;;;;;;;44.72;22.23;;;6.60;99.90;;;;;;5049912;28;20503;-53
2021/11/17 12:26:01;;;;;;;49.47;24.15;;;6.70;99.90;;;;;;5049657;28;20032;-57
2021/11/17 12:28:29;;;;;;;51.15;23.95;;;6.70;99.90;;;;;;5049178;28;20489;-55
2021/11/17 12:31:16;;;;;;;50.40;22.80;;;6.80;99.90;;;;;;5051651;28;20024;-58
2021/11/17 12:34:22;;;;;;;50.30;23.23;;;6.90;99.90;;;;;;5064035;28;20057;-56
2021/11/17 12:37:01;;;;;;;45.05;21.98;;;7.10;99.90;;;;;;5023816;28;20051;-55
2021/11/17 12:39:33;;;;;;;44.45;21.58;;;7.10;99.90;;;;;;5059202;28;20027;-55
2021/11/17 12:42:03;;;;;;;40.72;21.33;;;7.10;99.90;;;;;;5069157;28;20028;-51
2021/11/17 12:44:39;;;;;;;41.45;20.52;;;7.10;99.90;;;;;;5047237;28;20036;-55
2021/11/17 12:47:13;;;;;;;;;;;7.20;99.90;;;;;;5055132;28;20154;-51
2021/11/17 12:49:48;;;;;;;39.03;19.35;;;7.30;99.90;;;;;;5068931;28;19911;-57
2021/11/17 12:52:29;;;;;;;38.63;20.52;;;7.30;99.90;;;;;;5068685;28;20024;-56
2021/11/17 12:55:13;;;;;;;39.40;20.05;;;7.30;99.90;;;;;;5066765;28;20419;-54
2021/11/17 12:57:58;;;;;;;41.50;20.20;;;7.30;99.90;;;;;;5064387;28;20059;-53
2021/11/17 13:00:30;;;;;;;41.60;18.30;;;7.40;99.90;;;;;;5055298;28;20052;-52
2021/11/17 13:03:02;;;;;;;42.40;20.48;;;7.40;99.90;;;;;;5059965;28;20055;-52
2021/11/17 13:05:31;;;;;;;36.53;18.15;;;7.40;99.90;;;;;;5048913;28;20023;-51
2021/11/17 13:07:58;;;;;;;36.50;20.10;;;7.40;99.90;;;;;;5048019;28;20017;-54
2021/11/17 13:10:34;;;;;;;37.42;19.15;;;7.40;99.90;;;;;;5049439;28;20502;-52
2021/11/17 13:13:12;;;;;;;38.38;20.63;;;7.40;99.90;;;;;;5048560;28;20039;-51
2021/11/17 13:15:43;;;;;;;32.75;18.23;;;7.40;99.90;;;;;;5064924;28;20024;-51
2021/11/17 13:18:34;;;;;;;35.97;19.60;;;7.40;99.90;;;;;;5068457;28;20449;-56
2021/11/17 13:21:28;;;;;;;35.92;18.63;;;7.40;99.90;;;;;;5057599;28;20090;-54
2021/11/17 13:23:59;;;;;;;35.28;17.58;;;7.40;99.90;;;;;;5058963;28;20056;-55
2021/11/17 13:26:34;;;;;;;38.35;18.77;;;7.40;99.90;;;;;;5048481;28;20033;-56
2021/11/17 13:29:18;;;;;;;32.05;17.33;;;7.50;99.90;;;;;;5049415;28;20021;-53
2021/11/17 13:31:45;;;;;;;32.65;16.55;;;7.50;99.90;;;;;;5048263;28;20107;-55
2021/11/17 13:34:26;;;;;;;26.52;15.27;;;7.50;99.90;;;;;;5049026;28;20037;-52
2021/11/17 13:36:53;;;;;;;32.00;17.10;;;7.60;99.90;;;;;;5048096;28;20029;-53
2021/11/17 13:39:21;;;;;;;34.78;17.38;;;7.60;99.90;;;;;;5058152;28;20021;-54
2021/11/17 13:41:49;;;;;;;29.55;15.48;;;7.60;99.90;;;;;;5059528;28;20077;-53
2021/11/17 13:44:18;;;;;;;32.58;16.50;;;7.60;99.90;;;;;;5049540;28;20028;-56
2021/11/17 13:47:04;;;;;;;32.42;16.58;;;7.60;99.90;;;;;;5048815;28;20100;-54
2021/11/17 13:49:31;;;;;;;28.58;16.00;;;7.60;99.90;;;;;;5048038;28;20223;-52
2021/11/17 13:51:57;;;;;;;34.97;19.10;;;7.70;99.90;;;;;;5065329;28;20033;-55
2021/11/17 13:54:24;;;;;;;34.83;20.27;;;7.70;99.90;;;;;;5067927;28;20028;-55
2021/11/17 13:56:51;;;;;;;36.30;17.50;;;7.70;99.90;;;;;;5066789;28;20032;-54
2021/11/17 13:59:16;;;;;;;38.88;20.20;;;7.70;99.90;;;;;;5067607;28;20035;-52
2021/11/17 14:01:42;;;;;;;37.22;19.88;;;7.70;99.90;;;;;;5055843;28;20033;-54
2021/11/17 14:04:08;;;;;;;33.80;18.98;;;7.80;99.90;;;;;;5066874;28;20051;-57
2021/11/17 14:06:35;;;;;;;46.00;20.60;;;7.80;99.90;;;;;;5068064;28;20028;-54
2021/11/17 14:09:00;;;;;;;31.85;16.42;;;7.70;99.90;;;;;;5049423;28;20033;-55
2021/11/17 14:11:27;;;;;;;33.95;17.00;;;7.70;99.90;;;;;;5056098;28;20074;-53
2021/11/17 14:13:53;;;;;;;33.47;16.30;;;7.80;99.90;;;;;;5062024;28;20066;-55
2021/11/17 14:16:19;;;;;;;36.13;16.92;;;7.80;99.90;;;;;;5049639;28;20024;-55
2021/11/17 14:18:45;;;;;;;37.88;17.92;;;7.80;99.90;;;;;;5067041;28;20028;-55
2021/11/17 14:21:11;;;;;;;47.55;20.63;;;7.80;99.90;;;;;;5062551;28;20095;-53
2021/11/17 14:23:37;;;;;;;29.13;15.43;;;7.80;99.90;;;;;;5053117;28;20520;-54
2021/11/17 14:26:09;;;;;;;33.78;16.25;;;7.80;99.90;;;;;;5071357;28;20116;-54
2021/11/17 14:28:39;;;;;;;28.90;16.27;;;7.80;99.90;;;;;;5063141;28;20064;-53
2021/11/17 14:31:14;;;;;;;31.70;16.48;;;7.80;99.90;;;;;;5056618;28;20029;-56
2021/11/17 14:33:43;;;;;;;31.50;16.10;;;7.80;99.90;;;;;;5055409;28;20474;-52
2021/11/17 14:36:10;;;;;;;28.02;15.63;;;7.80;99.90;;;;;;5061576;28;20028;-57
2021/11/17 14:38:38;;;;;;;32.45;16.02;;;7.80;99.90;;;;;;5060504;28;20476;-55
2021/11/17 14:41:04;;;;;;;35.47;17.45;;;7.90;99.90;;;;;;5053130;28;20021;-56
2021/11/17 14:43:30;;;;;;;32.67;16.42;;;7.90;99.90;;;;;;5071247;28;20025;-52
2021/11/17 14:45:56;;;;;;;35.33;17.60;;;7.80;99.90;;;;;;5040251;28;20071;-53
2021/11/17 14:48:23;;;;;;;36.85;17.33;;;7.80;99.90;;;;;;5050962;28;20037;-53
2021/11/17 14:50:50;;;;;;;39.13;17.55;;;7.80;99.90;;;;;;5037672;28;20028;-54
2021/11/17 14:53:17;;;;;;;32.15;16.35;;;7.80;99.90;;;;;;5052120;28;20029;-54
2021/11/17 14:55:43;;;;;;;38.13;17.75;;;7.80;99.90;;;;;;5051546;28;20516;-53
2021/11/17 14:58:09;;;;;;;31.67;15.40;;;7.70;99.90;;;;;;5036445;28;20563;-55
2021/11/17 15:00:46;;;;;;;34.42;16.25;;;7.70;99.90;;;;;;5040760;28;20029;-54
2021/11/17 15:03:12;;;;;;;36.38;15.63;;;7.70;99.90;;;;;;5060212;28;20048;-55
2021/11/17 15:05:37;;;;;;;30.73;17.08;;;7.70;99.90;;;;;;5051228;28;20563;-55
2021/11/17 15:08:04;;;;;;;36.55;18.42;;;7.70;99.90;;;;;;5064984;28;20666;-54
2021/11/17 15:10:30;;;;;;;41.63;18.58;;;7.70;99.90;;;;;;5053820;28;20431;-56
2021/11/17 15:12:56;;;;;;;38.25;21.30;;;7.70;99.90;;;;;;5070691;28;20031;-54
2021/11/17 15:15:29;;;;;;;44.83;24.27;;;7.70;99.90;;;;;;5045331;28;20261;-55
2021/11/17 15:17:56;;;;;;;58.80;31.77;;;7.70;99.90;;;;;;5050124;28;20021;-54
2021/11/17 15:20:22;;;;;;;63.90;32.05;;;7.70;99.90;;;;;;5050283;28;20013;-56
2021/11/17 15:22:47;;;;;;;62.25;29.55;;;7.80;99.90;;;;;;5050797;28;20036;-56
2021/11/17 15:25:26;;;;;;;51.92;27.10;;;7.80;99.90;;;;;;5016175;28;20029;-55
2021/11/17 15:28:02;;;;;;;57.38;31.20;;;7.70;99.90;;;;;;5057250;28;20028;-53
2021/11/17 15:30:31;;;;;;;48.92;26.00;;;7.70;99.90;;;;;;5069010;28;20028;-55
2021/11/17 15:32:57;;;;;;;45.65;22.00;;;7.80;99.90;;;;;;5070451;28;20120;-55
2021/11/17 15:35:27;;;;;;;44.08;22.85;;;7.80;99.90;;;;;;5068594;28;20550;-55
2021/11/17 15:37:54;;;;;;;40.00;18.70;;;7.80;99.90;;;;;;5069625;28;20024;-53
2021/11/17 15:40:22;;;;;;;33.85;16.60;;;7.80;99.90;;;;;;5051483;28;20078;-52
2021/11/17 15:42:49;;;;;;;25.98;12.57;;;7.80;99.90;;;;;;5064537;28;20049;-54
2021/11/17 15:45:17;;;;;;;25.90;12.65;;;7.70;99.90;;;;;;5042437;28;20028;-56
2021/11/17 15:47:44;;;;;;;23.58;10.82;;;7.70;99.90;;;;;;5055045;28;20048;-54
2021/11/17 15:50:14;;;;;;;16.38;9.50;;;7.70;99.90;;;;;;5089446;28;20028;-56
2021/11/17 15:52:40;;;;;;;21.58;13.18;;;7.60;99.90;;;;;;5068465;28;20471;-54
2021/11/17 15:55:06;;;;;;;12.93;7.68;;;7.60;99.90;;;;;;5070700;28;20048;-57